Unser Platzwetter:
(um das Bild zu aktualisieren oder bei unvollständig geladenem Bild den Reload-Button des Browsers drücken)

 

 
[Quelle: ADDS]
METAR
ETNN 161420Z 30006KT 9999 FEW040 SCT070 22/11 Q1021 BLU+ =
TAF
SR / SS: 03:19 / 19:48 UTC (Vettweiss-Soller 2019-06-16)
 

Hier gibt es ein Wetterdiagramm der letzten 7 Tage.

Hier geht es zu unserer Webcam.

Satelitenbild:

aktuelles Meteosat-Bild von www.wetterzentrale.de